createdAt,value
2016-08-07T00:01:32.224Z,1015.44
2016-08-07T00:16:21.226Z,1015.53
2016-08-07T00:31:26.248Z,1015.39
2016-08-07T00:46:21.200Z,1015.35
2016-08-07T01:01:21.201Z,1015.1
2016-08-07T01:16:25.831Z,1015.06
2016-08-07T01:31:21.216Z,1015.05
2016-08-07T01:46:21.217Z,1015.1
2016-08-07T02:01:21.228Z,1015.1
2016-08-07T02:16:25.883Z,1015.18
2016-08-07T02:31:21.248Z,1015.26
2016-08-07T02:46:21.254Z,1015.29
2016-08-07T03:01:25.878Z,1015.12
2016-08-07T03:16:25.906Z,1015.25
2016-08-07T03:31:27.479Z,1015.27
2016-08-07T03:46:42.398Z,1015.36
2016-08-07T04:01:21.288Z,1015.26
2016-08-07T04:16:25.948Z,1015.25
2016-08-07T04:31:25.898Z,1015.28
2016-08-07T04:46:25.915Z,1015.35
2016-08-07T05:01:27.531Z,1015.28
2016-08-07T05:16:21.327Z,1015.47
2016-08-07T05:31:25.954Z,1015.39
2016-08-07T05:46:25.950Z,1015.25
2016-08-07T06:01:26.037Z,1015.45
2016-08-07T06:16:29.967Z,1015.3
2016-08-07T06:31:30.040Z,1015.42
2016-08-07T06:46:25.996Z,1015.59
2016-08-07T07:01:21.390Z,1015.44
2016-08-07T07:16:21.397Z,1015.32
2016-08-07T07:31:21.406Z,1015.41
2016-08-07T07:46:26.497Z,1015.3
2016-08-07T08:16:26.479Z,1015.13
2016-08-07T08:31:34.287Z,1014.95
2016-08-07T08:46:21.460Z,1014.94
2016-08-07T09:01:21.516Z,1014.89
2016-08-07T09:16:21.474Z,1014.91
2016-08-07T09:31:26.053Z,1014.38
2016-08-07T09:46:29.709Z,1014.44
2016-08-07T10:01:21.529Z,1014.12
2016-08-07T10:16:33.956Z,1013.98
2016-08-07T10:31:21.478Z,1013.92
2016-08-07T10:46:21.493Z,1013.74
2016-08-07T11:01:26.168Z,1013.42
2016-08-07T11:16:21.495Z,1013.47
2016-08-07T11:31:21.508Z,1013.19
2016-08-07T11:46:24.439Z,1012.86
2016-08-07T12:01:21.517Z,1012.67
2016-08-07T12:16:21.574Z,1012.38
2016-08-07T12:31:26.106Z,1012.34
2016-08-07T12:46:21.534Z,1012.16
2016-08-07T13:01:24.451Z,1012.04
2016-08-07T13:16:27.691Z,1011.79
2016-08-07T13:31:26.052Z,1011.72
2016-08-07T13:46:32.691Z,1011.62
2016-08-07T14:01:23.544Z,1011.36
2016-08-07T14:16:26.486Z,1011.37
2016-08-07T14:31:23.603Z,1011.35
2016-08-07T14:46:28.514Z,1011.07
2016-08-07T15:01:21.575Z,1010.91
2016-08-07T15:16:21.598Z,1010.81
2016-08-07T15:31:26.397Z,1010.84
2016-08-07T15:46:21.615Z,1010.58
2016-08-07T16:01:21.614Z,1010.57
2016-08-07T16:16:27.837Z,1010.49
2016-08-07T16:31:21.640Z,1010.48
2016-08-07T16:46:29.906Z,1010.61
2016-08-07T17:01:24.584Z,1010.59
2016-08-07T17:16:28.365Z,1010.83
2016-08-07T17:31:26.718Z,1010.88
2016-08-07T17:46:40.055Z,1010.99
2016-08-07T18:01:28.284Z,1010.92
2016-08-07T18:16:21.691Z,1011.06
2016-08-07T18:31:21.700Z,1011.12
2016-08-07T18:46:21.688Z,1011.05
2016-08-07T19:01:21.751Z,1011.06
2016-08-07T19:16:26.334Z,1011.1
2016-08-07T19:31:26.342Z,1011.13
2016-08-07T19:46:30.053Z,1011.01
2016-08-07T20:01:27.956Z,1011.11
2016-08-07T20:16:30.998Z,1011.06
2016-08-07T20:31:21.743Z,1010.77
2016-08-07T20:46:21.733Z,1010.77
2016-08-07T21:01:21.746Z,1010.72
2016-08-07T21:16:21.788Z,1010.53
2016-08-07T21:31:26.712Z,1010.53
2016-08-07T21:46:26.792Z,1010.37
2016-08-07T22:01:28.067Z,1010.2
2016-08-07T22:16:28.123Z,1009.9
2016-08-07T22:31:26.724Z,1009.71
2016-08-07T22:46:23.790Z,1009.57
2016-08-07T23:01:26.835Z,1009.48
2016-08-07T23:16:25.815Z,1009.32
2016-08-07T23:31:26.891Z,1009.12
2016-08-07T23:46:26.422Z,1008.86
